sensor_id;sensor_type;location;lat;lon;timestamp;temperature;humidity
2042;DHT22;1026;51.460;7.252;2024-02-15T00:02:23;10.20;99.90
2042;DHT22;1026;51.460;7.252;2024-02-15T00:04:50;10.20;99.90
2042;DHT22;1026;51.460;7.252;2024-02-15T00:07:17;10.20;99.90
2042;DHT22;1026;51.460;7.252;2024-02-15T00:09:44;10.20;99.90
2042;DHT22;1026;51.460;7.252;2024-02-15T00:12:11;10.20;99.90
2042;DHT22;1026;51.460;7.252;2024-02-15T00:14:38;10.20;99.90
2042;DHT22;1026;51.460;7.252;2024-02-15T00:17:05;10.20;99.90
2042;DHT22;1026;51.460;7.252;2024-02-15T00:19:32;10.10;99.90
2042;DHT22;1026;51.460;7.252;2024-02-15T00:21:59;10.20;99.90
2042;DHT22;1026;51.460;7.252;2024-02-15T00:24:26;10.20;99.90
2042;DHT22;1026;51.460;7.252;2024-02-15T00:26:53;10.20;99.90
2042;DHT22;1026;51.460;7.252;2024-02-15T00:29:21;10.20;99.90
2042;DHT22;1026;51.460;7.252;2024-02-15T00:31:48;10.20;99.90
2042;DHT22;1026;51.460;7.252;2024-02-15T00:34:16;10.20;99.90
2042;DHT22;1026;51.460;7.252;2024-02-15T00:36:44;10.20;99.90
2042;DHT22;1026;51.460;7.252;2024-02-15T00:39:12;10.20;99.90
2042;DHT22;1026;51.460;7.252;2024-02-15T00:41:40;10.20;99.90
2042;DHT22;1026;51.460;7.252;2024-02-15T00:44:09;10.20;99.90
2042;DHT22;1026;51.460;7.252;2024-02-15T00:46:39;10.20;99.90
2042;DHT22;1026;51.460;7.252;2024-02-15T00:49:08;10.20;99.90
2042;DHT22;1026;51.460;7.252;2024-02-15T00:51:36;10.20;99.90
2042;DHT22;1026;51.460;7.252;2024-02-15T00:54:03;10.20;99.90
2042;DHT22;1026;51.460;7.252;2024-02-15T00:56:31;10.20;99.90
2042;DHT22;1026;51.460;7.252;2024-02-15T00:58:59;10.20;99.90
2042;DHT22;1026;51.460;7.252;2024-02-15T01:01:30;10.20;99.90
2042;DHT22;1026;51.460;7.252;2024-02-15T01:03:57;10.20;99.90
2042;DHT22;1026;51.460;7.252;2024-02-15T01:06:24;10.30;99.90
2042;DHT22;1026;51.460;7.252;2024-02-15T01:08:51;10.20;99.90
2042;DHT22;1026;51.460;7.252;2024-02-15T01:11:18;10.20;99.90
2042;DHT22;1026;51.460;7.252;2024-02-15T01:13:45;10.20;99.90
2042;DHT22;1026;51.460;7.252;2024-02-15T01:16:12;10.20;99.90
2042;DHT22;1026;51.460;7.252;2024-02-15T01:18:39;10.20;99.90
2042;DHT22;1026;51.460;7.252;2024-02-15T01:21:06;10.20;99.90
2042;DHT22;1026;51.460;7.252;2024-02-15T01:23:33;10.20;99.90
2042;DHT22;1026;51.460;7.252;2024-02-15T01:26:04;10.20;99.90
2042;DHT22;1026;51.460;7.252;2024-02-15T01:28:31;10.20;99.90
2042;DHT22;1026;51.460;7.252;2024-02-15T01:30:59;10.20;99.90
2042;DHT22;1026;51.460;7.252;2024-02-15T01:33:26;10.20;99.90
2042;DHT22;1026;51.460;7.252;2024-02-15T01:35:54;10.20;99.90
2042;DHT22;1026;51.460;7.252;2024-02-15T01:38:21;10.20;99.90
2042;DHT22;1026;51.460;7.252;2024-02-15T01:40:48;10.20;99.90
2042;DHT22;1026;51.460;7.252;2024-02-15T01:43:15;10.20;99.90
2042;DHT22;1026;51.460;7.252;2024-02-15T01:45:42;10.30;99.90
2042;DHT22;1026;51.460;7.252;2024-02-15T01:48:10;10.20;99.90
2042;DHT22;1026;51.460;7.252;2024-02-15T01:50:38;10.20;99.90
2042;DHT22;1026;51.460;7.252;2024-02-15T01:53:07;10.30;99.90
2042;DHT22;1026;51.460;7.252;2024-02-15T01:55:35;10.30;99.90
2042;DHT22;1026;51.460;7.252;2024-02-15T01:58:03;10.20;99.90
2042;DHT22;1026;51.460;7.252;2024-02-15T02:00:30;10.30;99.90
2042;DHT22;1026;51.460;7.252;2024-02-15T02:02:57;10.30;99.90
2042;DHT22;1026;51.460;7.252;2024-02-15T02:05:30;10.30;99.90
2042;DHT22;1026;51.460;7.252;2024-02-15T02:07:58;10.30;99.90
2042;DHT22;1026;51.460;7.252;2024-02-15T02:10:28;10.30;99.90
2042;DHT22;1026;51.460;7.252;2024-02-15T02:13:00;10.30;99.90
2042;DHT22;1026;51.460;7.252;2024-02-15T02:15:30;10.30;99.90
2042;DHT22;1026;51.460;7.252;2024-02-15T02:17:59;10.30;99.90
2042;DHT22;1026;51.460;7.252;2024-02-15T02:20:26;10.30;99.90
2042;DHT22;1026;51.460;7.252;2024-02-15T02:22:54;10.30;99.90
2042;DHT22;1026;51.460;7.252;2024-02-15T02:25:26;10.30;99.90
2042;DHT22;1026;51.460;7.252;2024-02-15T02:27:55;10.30;99.90
2042;DHT22;1026;51.460;7.252;2024-02-15T02:30:22;10.30;99.90
2042;DHT22;1026;51.460;7.252;2024-02-15T02:32:50;10.30;99.90
2042;DHT22;1026;51.460;7.252;2024-02-15T02:35:17;10.30;99.90
2042;DHT22;1026;51.460;7.252;2024-02-15T02:37:43;10.30;99.90
2042;DHT22;1026;51.460;7.252;2024-02-15T02:40:11;10.30;99.90
2042;DHT22;1026;51.460;7.252;2024-02-15T02:43:00;10.30;99.90
2042;DHT22;1026;51.460;7.252;2024-02-15T02:45:27;10.30;99.90
2042;DHT22;1026;51.460;7.252;2024-02-15T02:47:54;10.30;99.90
2042;DHT22;1026;51.460;7.252;2024-02-15T02:50:22;10.30;99.90
2042;DHT22;1026;51.460;7.252;2024-02-15T02:52:51;10.30;99.90
2042;DHT22;1026;51.460;7.252;2024-02-15T02:55:18;10.30;99.90
2042;DHT22;1026;51.460;7.252;2024-02-15T02:57:45;10.30;99.90
2042;DHT22;1026;51.460;7.252;2024-02-15T03:00:13;10.30;99.90
2042;DHT22;1026;51.460;7.252;2024-02-15T03:02:43;10.30;99.90
2042;DHT22;1026;51.460;7.252;2024-02-15T03:05:10;10.30;99.90
2042;DHT22;1026;51.460;7.252;2024-02-15T03:07:39;10.30;99.90
2042;DHT22;1026;51.460;7.252;2024-02-15T03:10:09;10.30;99.90
2042;DHT22;1026;51.460;7.252;2024-02-15T03:12:41;10.30;99.90
2042;DHT22;1026;51.460;7.252;2024-02-15T03:15:15;10.30;99.90
2042;DHT22;1026;51.460;7.252;2024-02-15T03:17:43;10.30;99.90
2042;DHT22;1026;51.460;7.252;2024-02-15T03:20:12;10.30;99.90
2042;DHT22;1026;51.460;7.252;2024-02-15T03:22:54;10.30;99.90
2042;DHT22;1026;51.460;7.252;2024-02-15T03:25:21;10.30;99.90
2042;DHT22;1026;51.460;7.252;2024-02-15T03:27:52;10.30;99.90
2042;DHT22;1026;51.460;7.252;2024-02-15T03:30:20;10.30;99.90
2042;DHT22;1026;51.460;7.252;2024-02-15T03:32:48;10.30;99.90
2042;DHT22;1026;51.460;7.252;2024-02-15T03:35:20;10.30;99.90
2042;DHT22;1026;51.460;7.252;2024-02-15T03:37:47;10.20;99.90
2042;DHT22;1026;51.460;7.252;2024-02-15T03:40:18;10.20;99.90
2042;DHT22;1026;51.460;7.252;2024-02-15T03:42:46;10.30;99.90
2042;DHT22;1026;51.460;7.252;2024-02-15T03:45:19;10.30;99.90
2042;DHT22;1026;51.460;7.252;2024-02-15T03:47:47;10.30;99.90
2042;DHT22;1026;51.460;7.252;2024-02-15T03:50:17;10.20;99.90
2042;DHT22;1026;51.460;7.252;2024-02-15T03:52:45;10.30;99.90
2042;DHT22;1026;51.460;7.252;2024-02-15T03:55:12;10.30;99.90
2042;DHT22;1026;51.460;7.252;2024-02-15T03:57:40;10.30;99.90
2042;DHT22;1026;51.460;7.252;2024-02-15T04:00:14;10.30;99.90
2042;DHT22;1026;51.460;7.252;2024-02-15T04:02:48;10.20;99.90
2042;DHT22;1026;51.460;7.252;2024-02-15T04:05:16;10.30;99.90
2042;DHT22;1026;51.460;7.252;2024-02-15T04:07:45;10.20;99.90
2042;DHT22;1026;51.460;7.252;2024-02-15T04:10:12;10.30;99.90
2042;DHT22;1026;51.460;7.252;2024-02-15T04:12:39;10.20;99.90
2042;DHT22;1026;51.460;7.252;2024-02-15T04:15:09;10.20;99.90
2042;DHT22;1026;51.460;7.252;2024-02-15T04:17:41;10.30;99.90
2042;DHT22;1026;51.460;7.252;2024-02-15T04:20:10;10.20;99.90
2042;DHT22;1026;51.460;7.252;2024-02-15T04:22:39;10.30;99.90
2042;DHT22;1026;51.460;7.252;2024-02-15T04:25:09;10.20;99.90
2042;DHT22;1026;51.460;7.252;2024-02-15T04:27:45;10.20;99.90
2042;DHT22;1026;51.460;7.252;2024-02-15T04:30:16;10.30;99.90
2042;DHT22;1026;51.460;7.252;2024-02-15T04:32:44;10.30;99.90
2042;DHT22;1026;51.460;7.252;2024-02-15T04:35:11;10.30;99.90
2042;DHT22;1026;51.460;7.252;2024-02-15T04:37:41;10.20;99.90
2042;DHT22;1026;51.460;7.252;2024-02-15T04:40:20;10.30;99.90
2042;DHT22;1026;51.460;7.252;2024-02-15T04:42:47;10.20;99.90
2042;DHT22;1026;51.460;7.252;2024-02-15T04:45:14;10.30;99.90
2042;DHT22;1026;51.460;7.252;2024-02-15T04:47:42;10.30;99.90
2042;DHT22;1026;51.460;7.252;2024-02-15T04:50:13;10.30;99.90
2042;DHT22;1026;51.460;7.252;2024-02-15T04:52:40;10.30;99.90
2042;DHT22;1026;51.460;7.252;2024-02-15T04:55:10;10.30;99.90
2042;DHT22;1026;51.460;7.252;2024-02-15T04:57:37;10.30;99.90
2042;DHT22;1026;51.460;7.252;2024-02-15T05:00:05;10.30;99.90
2042;DHT22;1026;51.460;7.252;2024-02-15T05:02:40;10.30;99.90
2042;DHT22;1026;51.460;7.252;2024-02-15T05:05:11;10.30;99.90
2042;DHT22;1026;51.460;7.252;2024-02-15T05:07:41;10.30;99.90
2042;DHT22;1026;51.460;7.252;2024-02-15T05:10:08;10.30;99.90
2042;DHT22;1026;51.460;7.252;2024-02-15T05:12:37;10.30;99.90
2042;DHT22;1026;51.460;7.252;2024-02-15T05:15:05;10.30;99.90
2042;DHT22;1026;51.460;7.252;2024-02-15T05:17:40;10.30;99.90
2042;DHT22;1026;51.460;7.252;2024-02-15T05:20:10;10.30;99.90
2042;DHT22;1026;51.460;7.252;2024-02-15T05:22:39;10.30;99.90
2042;DHT22;1026;51.460;7.252;2024-02-15T05:25:09;10.30;99.90
2042;DHT22;1026;51.460;7.252;2024-02-15T05:27:36;10.30;99.90
2042;DHT22;1026;51.460;7.252;2024-02-15T05:30:03;10.30;99.90
2042;DHT22;1026;51.460;7.252;2024-02-15T05:32:36;10.30;99.90
2042;DHT22;1026;51.460;7.252;2024-02-15T05:35:09;10.30;99.90
2042;DHT22;1026;51.460;7.252;2024-02-15T05:37:38;10.30;99.90
2042;DHT22;1026;51.460;7.252;2024-02-15T05:40:06;10.30;99.90
2042;DHT22;1026;51.460;7.252;2024-02-15T05:42:33;10.30;99.90
2042;DHT22;1026;51.460;7.252;2024-02-15T05:48:06;10.30;99.90
2042;DHT22;1026;51.460;7.252;2024-02-15T05:50:34;10.30;99.90
2042;DHT22;1026;51.460;7.252;2024-02-15T05:53:02;10.30;99.90
2042;DHT22;1026;51.460;7.252;2024-02-15T05:55:30;10.30;99.90
2042;DHT22;1026;51.460;7.252;2024-02-15T05:58:01;10.30;99.90
2042;DHT22;1026;51.460;7.252;2024-02-15T06:00:28;10.30;99.90
2042;DHT22;1026;51.460;7.252;2024-02-15T06:02:57;10.30;99.90
2042;DHT22;1026;51.460;7.252;2024-02-15T06:05:24;10.30;99.90
2042;DHT22;1026;51.460;7.252;2024-02-15T06:07:51;10.30;99.90
2042;DHT22;1026;51.460;7.252;2024-02-15T06:10:18;10.30;99.90
2042;DHT22;1026;51.460;7.252;2024-02-15T06:12:45;10.30;99.90
2042;DHT22;1026;51.460;7.252;2024-02-15T06:15:12;10.30;99.90
2042;DHT22;1026;51.460;7.252;2024-02-15T06:17:43;10.30;99.90
2042;DHT22;1026;51.460;7.252;2024-02-15T06:20:12;10.30;99.90
2042;DHT22;1026;51.460;7.252;2024-02-15T06:22:41;10.30;99.90
2042;DHT22;1026;51.460;7.252;2024-02-15T06:25:08;10.30;99.90
2042;DHT22;1026;51.460;7.252;2024-02-15T06:27:39;10.30;99.90
2042;DHT22;1026;51.460;7.252;2024-02-15T06:30:10;10.30;99.90
2042;DHT22;1026;51.460;7.252;2024-02-15T06:32:57;10.30;99.90
2042;DHT22;1026;51.460;7.252;2024-02-15T06:35:43;10.30;99.90
2042;DHT22;1026;51.460;7.252;2024-02-15T06:38:28;10.30;99.90
2042;DHT22;1026;51.460;7.252;2024-02-15T06:41:14;10.30;99.90
2042;DHT22;1026;51.460;7.252;2024-02-15T06:43:41;10.30;99.90
2042;DHT22;1026;51.460;7.252;2024-02-15T06:46:08;10.30;99.90
2042;DHT22;1026;51.460;7.252;2024-02-15T06:48:37;10.30;99.90
2042;DHT22;1026;51.460;7.252;2024-02-15T06:51:04;10.30;99.90
2042;DHT22;1026;51.460;7.252;2024-02-15T06:53:32;10.30;99.90
2042;DHT22;1026;51.460;7.252;2024-02-15T06:55:59;10.30;99.90
2042;DHT22;1026;51.460;7.252;2024-02-15T06:58:26;10.30;99.90
2042;DHT22;1026;51.460;7.252;2024-02-15T07:00:54;10.30;99.90
2042;DHT22;1026;51.460;7.252;2024-02-15T07:03:28;10.30;99.90
2042;DHT22;1026;51.460;7.252;2024-02-15T07:05:56;10.30;99.90
2042;DHT22;1026;51.460;7.252;2024-02-15T07:08:23;10.30;99.90
2042;DHT22;1026;51.460;7.252;2024-02-15T07:10:51;10.30;99.90
2042;DHT22;1026;51.460;7.252;2024-02-15T07:13:18;10.30;99.90
2042;DHT22;1026;51.460;7.252;2024-02-15T07:15:45;10.30;99.90
2042;DHT22;1026;51.460;7.252;2024-02-15T07:18:12;10.30;99.90
2042;DHT22;1026;51.460;7.252;2024-02-15T07:20:43;10.30;99.90
2042;DHT22;1026;51.460;7.252;2024-02-15T07:23:12;10.30;99.90
2042;DHT22;1026;51.460;7.252;2024-02-15T07:25:38;10.30;99.90
2042;DHT22;1026;51.460;7.252;2024-02-15T07:28:05;10.30;99.90
2042;DHT22;1026;51.460;7.252;2024-02-15T07:30:33;10.30;99.90
2042;DHT22;1026;51.460;7.252;2024-02-15T07:33:00;10.30;99.90
2042;DHT22;1026;51.460;7.252;2024-02-15T07:35:27;10.30;99.90
2042;DHT22;1026;51.460;7.252;2024-02-15T07:37:57;10.30;99.90
2042;DHT22;1026;51.460;7.252;2024-02-15T07:40:25;10.30;99.90
2042;DHT22;1026;51.460;7.252;2024-02-15T07:42:57;10.30;99.90
2042;DHT22;1026;51.460;7.252;2024-02-15T07:45:45;10.30;99.90
2042;DHT22;1026;51.460;7.252;2024-02-15T07:48:16;10.30;99.90
2042;DHT22;1026;51.460;7.252;2024-02-15T07:50:49;10.30;99.90
2042;DHT22;1026;51.460;7.252;2024-02-15T07:53:15;10.30;99.90
2042;DHT22;1026;51.460;7.252;2024-02-15T07:55:42;10.30;99.90
2042;DHT22;1026;51.460;7.252;2024-02-15T07:58:10;10.30;99.90
2042;DHT22;1026;51.460;7.252;2024-02-15T08:00:37;10.30;99.90
2042;DHT22;1026;51.460;7.252;2024-02-15T08:03:05;10.30;99.90
2042;DHT22;1026;51.460;7.252;2024-02-15T08:05:32;10.30;99.90
2042;DHT22;1026;51.460;7.252;2024-02-15T08:08:00;10.30;99.90
2042;DHT22;1026;51.460;7.252;2024-02-15T08:10:27;10.30;99.90
2042;DHT22;1026;51.460;7.252;2024-02-15T08:12:55;10.30;99.90
2042;DHT22;1026;51.460;7.252;2024-02-15T08:15:24;10.30;99.90
2042;DHT22;1026;51.460;7.252;2024-02-15T08:17:54;10.30;99.90
2042;DHT22;1026;51.460;7.252;2024-02-15T08:20:22;10.30;99.90
2042;DHT22;1026;51.460;7.252;2024-02-15T08:22:49;10.30;99.90
2042;DHT22;1026;51.460;7.252;2024-02-15T08:25:16;10.30;99.90
2042;DHT22;1026;51.460;7.252;2024-02-15T08:27:47;10.30;99.90
2042;DHT22;1026;51.460;7.252;2024-02-15T08:30:17;10.30;99.90
2042;DHT22;1026;51.460;7.252;2024-02-15T08:32:49;10.30;99.90
2042;DHT22;1026;51.460;7.252;2024-02-15T08:35:18;10.30;99.90
2042;DHT22;1026;51.460;7.252;2024-02-15T08:37:46;10.30;99.90
2042;DHT22;1026;51.460;7.252;2024-02-15T08:40:15;10.30;99.90
2042;DHT22;1026;51.460;7.252;2024-02-15T08:42:45;10.30;99.90
2042;DHT22;1026;51.460;7.252;2024-02-15T08:45:12;10.40;99.90
2042;DHT22;1026;51.460;7.252;2024-02-15T08:47:40;10.30;99.90
2042;DHT22;1026;51.460;7.252;2024-02-15T08:50:09;10.40;99.90
2042;DHT22;1026;51.460;7.252;2024-02-15T08:52:37;10.40;99.90
2042;DHT22;1026;51.460;7.252;2024-02-15T08:55:10;10.40;99.90
2042;DHT22;1026;51.460;7.252;2024-02-15T08:57:37;10.40;99.90
2042;DHT22;1026;51.460;7.252;2024-02-15T09:00:08;10.40;99.90
2042;DHT22;1026;51.460;7.252;2024-02-15T09:02:40;10.40;99.90
2042;DHT22;1026;51.460;7.252;2024-02-15T09:05:08;10.40;99.90
2042;DHT22;1026;51.460;7.252;2024-02-15T09:07:36;10.40;99.90
2042;DHT22;1026;51.460;7.252;2024-02-15T09:10:08;10.40;99.90
2042;DHT22;1026;51.460;7.252;2024-02-15T09:12:40;10.40;99.90
2042;DHT22;1026;51.460;7.252;2024-02-15T09:15:08;10.40;99.90
2042;DHT22;1026;51.460;7.252;2024-02-15T09:17:35;10.40;99.90
2042;DHT22;1026;51.460;7.252;2024-02-15T09:20:08;10.40;99.90
2042;DHT22;1026;51.460;7.252;2024-02-15T09:22:35;10.40;99.90
2042;DHT22;1026;51.460;7.252;2024-02-15T09:25:03;10.40;99.90
2042;DHT22;1026;51.460;7.252;2024-02-15T09:27:30;10.40;99.90
2042;DHT22;1026;51.460;7.252;2024-02-15T09:29:56;10.40;99.90
2042;DHT22;1026;51.460;7.252;2024-02-15T09:32:23;10.40;99.90
2042;DHT22;1026;51.460;7.252;2024-02-15T09:34:50;10.50;99.90
2042;DHT22;1026;51.460;7.252;2024-02-15T09:37:17;10.50;99.90
2042;DHT22;1026;51.460;7.252;2024-02-15T09:39:44;10.50;99.90
2042;DHT22;1026;51.460;7.252;2024-02-15T09:42:11;10.50;99.90
2042;DHT22;1026;51.460;7.252;2024-02-15T09:44:38;10.50;99.90
2042;DHT22;1026;51.460;7.252;2024-02-15T09:47:07;10.50;99.90
2042;DHT22;1026;51.460;7.252;2024-02-15T09:49:47;10.50;99.90
2042;DHT22;1026;51.460;7.252;2024-02-15T09:52:15;10.50;99.90
2042;DHT22;1026;51.460;7.252;2024-02-15T09:54:46;10.50;99.90
2042;DHT22;1026;51.460;7.252;2024-02-15T09:57:13;10.50;99.90
2042;DHT22;1026;51.460;7.252;2024-02-15T09:59:40;10.50;99.90
2042;DHT22;1026;51.460;7.252;2024-02-15T10:02:09;10.60;99.90
2042;DHT22;1026;51.460;7.252;2024-02-15T10:04:39;10.60;99.90
2042;DHT22;1026;51.460;7.252;2024-02-15T10:07:06;10.60;99.90
2042;DHT22;1026;51.460;7.252;2024-02-15T10:09:36;10.60;99.90
2042;DHT22;1026;51.460;7.252;2024-02-15T10:12:09;10.60;99.90
2042;DHT22;1026;51.460;7.252;2024-02-15T10:14:36;10.60;99.90
2042;DHT22;1026;51.460;7.252;2024-02-15T10:17:08;10.60;99.90
2042;DHT22;1026;51.460;7.252;2024-02-15T10:19:39;10.60;99.90
2042;DHT22;1026;51.460;7.252;2024-02-15T10:22:07;10.60;99.90
2042;DHT22;1026;51.460;7.252;2024-02-15T10:24:35;10.60;99.90
2042;DHT22;1026;51.460;7.252;2024-02-15T10:27:04;10.70;99.90
2042;DHT22;1026;51.460;7.252;2024-02-15T10:29:33;10.70;99.90
2042;DHT22;1026;51.460;7.252;2024-02-15T10:32:01;10.70;99.90
2042;DHT22;1026;51.460;7.252;2024-02-15T10:34:32;10.70;99.90
2042;DHT22;1026;51.460;7.252;2024-02-15T10:37:14;10.70;99.90
2042;DHT22;1026;51.460;7.252;2024-02-15T10:39:43;10.70;99.90
2042;DHT22;1026;51.460;7.252;2024-02-15T10:42:10;10.70;99.90
2042;DHT22;1026;51.460;7.252;2024-02-15T10:44:38;10.70;99.90
2042;DHT22;1026;51.460;7.252;2024-02-15T10:47:08;10.70;99.90
2042;DHT22;1026;51.460;7.252;2024-02-15T10:49:35;10.80;99.90
2042;DHT22;1026;51.460;7.252;2024-02-15T10:52:10;10.80;99.90
2042;DHT22;1026;51.460;7.252;2024-02-15T10:57:56;10.80;99.90
2042;DHT22;1026;51.460;7.252;2024-02-15T11:00:37;10.80;99.90
2042;DHT22;1026;51.460;7.252;2024-02-15T11:03:10;10.80;99.90
2042;DHT22;1026;51.460;7.252;2024-02-15T11:05:58;10.80;99.90
2042;DHT22;1026;51.460;7.252;2024-02-15T11:08:26;10.90;99.90
2042;DHT22;1026;51.460;7.252;2024-02-15T11:10:54;10.90;99.90
2042;DHT22;1026;51.460;7.252;2024-02-15T11:13:25;10.90;99.90
2042;DHT22;1026;51.460;7.252;2024-02-15T11:15:53;10.90;99.90
2042;DHT22;1026;51.460;7.252;2024-02-15T11:18:50;10.90;99.90
2042;DHT22;1026;51.460;7.252;2024-02-15T11:21:55;10.90;99.90
2042;DHT22;1026;51.460;7.252;2024-02-15T11:24:33;10.90;99.90
2042;DHT22;1026;51.460;7.252;2024-02-15T11:27:04;10.90;99.90
2042;DHT22;1026;51.460;7.252;2024-02-15T11:29:54;11.00;99.90
2042;DHT22;1026;51.460;7.252;2024-02-15T11:32:59;11.00;99.90
2042;DHT22;1026;51.460;7.252;2024-02-15T11:35:26;11.00;99.90
2042;DHT22;1026;51.460;7.252;2024-02-15T11:37:59;11.00;99.90
2042;DHT22;1026;51.460;7.252;2024-02-15T11:43:53;11.00;99.90
2042;DHT22;1026;51.460;7.252;2024-02-15T11:46:28;11.00;99.90
2042;DHT22;1026;51.460;7.252;2024-02-15T11:48:59;11.10;99.90
2042;DHT22;1026;51.460;7.252;2024-02-15T11:51:34;11.10;99.90
2042;DHT22;1026;51.460;7.252;2024-02-15T11:54:10;11.10;99.90
2042;DHT22;1026;51.460;7.252;2024-02-15T11:56:58;11.10;99.90
2042;DHT22;1026;51.460;7.252;2024-02-15T11:59:48;11.10;99.90
2042;DHT22;1026;51.460;7.252;2024-02-15T12:02:39;11.10;99.90
2042;DHT22;1026;51.460;7.252;2024-02-15T12:05:30;11.20;99.90
2042;DHT22;1026;51.460;7.252;2024-02-15T12:08:15;11.20;99.90
2042;DHT22;1026;51.460;7.252;2024-02-15T12:11:01;11.20;99.90
2042;DHT22;1026;51.460;7.252;2024-02-15T12:13:50;11.20;99.90
2042;DHT22;1026;51.460;7.252;2024-02-15T12:16:36;11.20;99.90
2042;DHT22;1026;51.460;7.252;2024-02-15T12:19:21;11.20;99.90
2042;DHT22;1026;51.460;7.252;2024-02-15T12:21:49;11.30;99.90
2042;DHT22;1026;51.460;7.252;2024-02-15T12:24:16;11.30;99.90
2042;DHT22;1026;51.460;7.252;2024-02-15T12:26:44;11.30;99.90
2042;DHT22;1026;51.460;7.252;2024-02-15T12:29:17;11.30;99.90
2042;DHT22;1026;51.460;7.252;2024-02-15T12:31:44;11.30;99.90
2042;DHT22;1026;51.460;7.252;2024-02-15T12:34:11;11.30;99.90
2042;DHT22;1026;51.460;7.252;2024-02-15T12:36:39;11.40;99.90
2042;DHT22;1026;51.460;7.252;2024-02-15T12:39:09;11.40;99.90
2042;DHT22;1026;51.460;7.252;2024-02-15T12:41:49;11.40;99.90
2042;DHT22;1026;51.460;7.252;2024-02-15T12:44:19;11.40;99.90
2042;DHT22;1026;51.460;7.252;2024-02-15T12:46:54;11.40;99.90
2042;DHT22;1026;51.460;7.252;2024-02-15T12:49:30;11.50;99.90
2042;DHT22;1026;51.460;7.252;2024-02-15T12:52:50;11.50;99.90
2042;DHT22;1026;51.460;7.252;2024-02-15T12:55:21;11.50;99.90
2042;DHT22;1026;51.460;7.252;2024-02-15T12:57:53;11.50;99.90
2042;DHT22;1026;51.460;7.252;2024-02-15T13:00:26;11.50;99.90
2042;DHT22;1026;51.460;7.252;2024-02-15T13:02:59;11.60;99.90
2042;DHT22;1026;51.460;7.252;2024-02-15T13:05:27;11.60;99.90
2042;DHT22;1026;51.460;7.252;2024-02-15T13:07:56;11.60;99.90
2042;DHT22;1026;51.460;7.252;2024-02-15T13:10:24;11.60;99.90
2042;DHT22;1026;51.460;7.252;2024-02-15T13:12:52;11.60;99.90
2042;DHT22;1026;51.460;7.252;2024-02-15T13:15:20;11.70;99.90
2042;DHT22;1026;51.460;7.252;2024-02-15T13:17:48;11.60;99.90
2042;DHT22;1026;51.460;7.252;2024-02-15T13:20:18;11.70;99.90
2042;DHT22;1026;51.460;7.252;2024-02-15T13:22:47;11.70;99.90
2042;DHT22;1026;51.460;7.252;2024-02-15T13:25:17;11.70;99.90
2042;DHT22;1026;51.460;7.252;2024-02-15T13:27:54;11.70;99.90
2042;DHT22;1026;51.460;7.252;2024-02-15T13:30:21;11.70;99.90
2042;DHT22;1026;51.460;7.252;2024-02-15T13:32:50;11.80;99.90
2042;DHT22;1026;51.460;7.252;2024-02-15T13:35:17;11.80;99.90
2042;DHT22;1026;51.460;7.252;2024-02-15T13:37:47;11.80;99.90
2042;DHT22;1026;51.460;7.252;2024-02-15T13:40:16;11.80;99.90
2042;DHT22;1026;51.460;7.252;2024-02-15T13:42:44;11.80;99.90
2042;DHT22;1026;51.460;7.252;2024-02-15T13:45:22;11.80;99.90
2042;DHT22;1026;51.460;7.252;2024-02-15T13:47:50;11.80;99.90
2042;DHT22;1026;51.460;7.252;2024-02-15T13:50:20;11.80;99.90
2042;DHT22;1026;51.460;7.252;2024-02-15T13:52:47;11.80;99.90
2042;DHT22;1026;51.460;7.252;2024-02-15T13:55:15;11.80;99.90
2042;DHT22;1026;51.460;7.252;2024-02-15T13:57:44;11.90;99.90
2042;DHT22;1026;51.460;7.252;2024-02-15T14:00:15;11.90;99.90
2042;DHT22;1026;51.460;7.252;2024-02-15T14:02:55;11.90;99.90
2042;DHT22;1026;51.460;7.252;2024-02-15T14:05:31;11.90;99.90
2042;DHT22;1026;51.460;7.252;2024-02-15T14:08:00;11.90;99.90
2042;DHT22;1026;51.460;7.252;2024-02-15T14:10:30;11.90;99.90
2042;DHT22;1026;51.460;7.252;2024-02-15T14:12:57;11.90;99.90
2042;DHT22;1026;51.460;7.252;2024-02-15T14:15:25;11.90;99.90
2042;DHT22;1026;51.460;7.252;2024-02-15T14:17:52;12.00;99.90
2042;DHT22;1026;51.460;7.252;2024-02-15T14:20:19;11.90;99.90
2042;DHT22;1026;51.460;7.252;2024-02-15T14:22:49;12.00;99.90
2042;DHT22;1026;51.460;7.252;2024-02-15T14:25:23;11.90;99.90
2042;DHT22;1026;51.460;7.252;2024-02-15T14:27:50;12.00;99.90
2042;DHT22;1026;51.460;7.252;2024-02-15T14:30:18;12.00;99.90
2042;DHT22;1026;51.460;7.252;2024-02-15T14:33:05;12.00;99.90
2042;DHT22;1026;51.460;7.252;2024-02-15T14:35:37;12.00;99.90
2042;DHT22;1026;51.460;7.252;2024-02-15T14:38:07;12.00;99.90
2042;DHT22;1026;51.460;7.252;2024-02-15T14:40:38;12.00;99.90
2042;DHT22;1026;51.460;7.252;2024-02-15T14:43:09;12.00;99.90
2042;DHT22;1026;51.460;7.252;2024-02-15T14:45:45;12.00;99.90
2042;DHT22;1026;51.460;7.252;2024-02-15T14:48:12;12.00;99.90
2042;DHT22;1026;51.460;7.252;2024-02-15T14:50:42;12.00;99.90
2042;DHT22;1026;51.460;7.252;2024-02-15T14:53:11;12.00;99.90
2042;DHT22;1026;51.460;7.252;2024-02-15T14:55:38;12.00;99.90
2042;DHT22;1026;51.460;7.252;2024-02-15T14:58:06;12.00;99.90
2042;DHT22;1026;51.460;7.252;2024-02-15T15:00:40;12.00;99.90
2042;DHT22;1026;51.460;7.252;2024-02-15T15:03:16;12.00;99.90
2042;DHT22;1026;51.460;7.252;2024-02-15T15:05:44;12.00;99.90
2042;DHT22;1026;51.460;7.252;2024-02-15T15:08:31;12.10;99.90
2042;DHT22;1026;51.460;7.252;2024-02-15T15:11:16;12.10;99.90
2042;DHT22;1026;51.460;7.252;2024-02-15T15:14:02;12.10;99.90
2042;DHT22;1026;51.460;7.252;2024-02-15T15:16:33;12.10;99.90
2042;DHT22;1026;51.460;7.252;2024-02-15T15:19:01;12.10;99.90
2042;DHT22;1026;51.460;7.252;2024-02-15T15:21:30;12.10;99.90
2042;DHT22;1026;51.460;7.252;2024-02-15T15:23:57;12.10;99.90
2042;DHT22;1026;51.460;7.252;2024-02-15T15:26:24;12.10;99.90
2042;DHT22;1026;51.460;7.252;2024-02-15T15:28:51;12.10;99.90
2042;DHT22;1026;51.460;7.252;2024-02-15T15:31:18;12.10;99.90
2042;DHT22;1026;51.460;7.252;2024-02-15T15:33:48;12.10;99.90
2042;DHT22;1026;51.460;7.252;2024-02-15T15:36:16;12.10;99.90
2042;DHT22;1026;51.460;7.252;2024-02-15T15:38:51;12.10;99.90
2042;DHT22;1026;51.460;7.252;2024-02-15T15:41:24;12.10;99.90
2042;DHT22;1026;51.460;7.252;2024-02-15T15:43:51;12.10;99.90
2042;DHT22;1026;51.460;7.252;2024-02-15T15:46:18;12.10;99.90
2042;DHT22;1026;51.460;7.252;2024-02-15T15:48:45;12.10;99.90
2042;DHT22;1026;51.460;7.252;2024-02-15T15:51:13;12.10;99.90
2042;DHT22;1026;51.460;7.252;2024-02-15T15:53:42;12.10;99.90
2042;DHT22;1026;51.460;7.252;2024-02-15T15:56:12;12.10;99.90
2042;DHT22;1026;51.460;7.252;2024-02-15T15:58:39;12.10;99.90
2042;DHT22;1026;51.460;7.252;2024-02-15T16:01:10;12.10;99.90
2042;DHT22;1026;51.460;7.252;2024-02-15T16:03:37;12.10;99.90
2042;DHT22;1026;51.460;7.252;2024-02-15T16:06:06;12.10;99.90
2042;DHT22;1026;51.460;7.252;2024-02-15T16:08:34;12.10;99.90
2042;DHT22;1026;51.460;7.252;2024-02-15T16:11:01;12.10;99.90
2042;DHT22;1026;51.460;7.252;2024-02-15T16:13:31;12.10;99.90
2042;DHT22;1026;51.460;7.252;2024-02-15T16:15:58;12.10;99.90
2042;DHT22;1026;51.460;7.252;2024-02-15T16:18:25;12.10;99.90
2042;DHT22;1026;51.460;7.252;2024-02-15T16:20:52;12.10;99.90
2042;DHT22;1026;51.460;7.252;2024-02-15T16:23:21;12.10;99.90
2042;DHT22;1026;51.460;7.252;2024-02-15T16:25:49;12.10;99.90
2042;DHT22;1026;51.460;7.252;2024-02-15T16:28:18;12.10;99.90
2042;DHT22;1026;51.460;7.252;2024-02-15T16:30:47;12.10;99.90
2042;DHT22;1026;51.460;7.252;2024-02-15T16:33:15;12.10;99.90